Terminal Aerodrome Forecast
Issued by NWS Jacksonville, FL

Home | Current Version | Previous Version | Text Only | Print | Product List | Glossary On
Versions: 1 2 3 4 5 6 7 8 9 10 11 12 13 14 15 16 17 18 19 20 21 22 23 24 25 26 27 28
539
FTUS42 KJAX 230522
TAFSSI
TAF
KSSI 230522Z 2306/2406 18005KT P6SM FEW250
     FM231300 26007KT P6SM SCT020 SCT250
     FM231800 13011KT P6SM VCTS SCT045CB SCT120 BKN250
     FM240000 20009KT P6SM SCT100 BKN250=

USA.gov is the U.S. government's official web portal to all federal, state and local government web resources and services.